createdAt,value
2023-03-16T00:01:53.569Z,101589.06
2023-03-16T00:04:40.733Z,101571.41
2023-03-16T00:07:27.624Z,101599.41
2023-03-16T00:10:14.924Z,101600.28
2023-03-16T00:13:02.837Z,101595.88
2023-03-16T00:15:52.374Z,101596.75
2023-03-16T00:18:41.269Z,101593.28
2023-03-16T00:21:27.939Z,101601.91
2023-03-16T00:24:18.192Z,101604.63
2023-03-16T00:27:05.105Z,101592.34
2023-03-16T00:29:56.036Z,101600.13
2023-03-16T00:32:43.157Z,101591.50
2023-03-16T00:35:34.795Z,101605.31
2023-03-16T00:38:21.838Z,101501.72
2023-03-16T00:41:09.337Z,101605.38
2023-03-16T00:43:56.126Z,101606.31
2023-03-16T00:46:42.904Z,101607.91
2023-03-16T00:49:29.700Z,101608.78
2023-03-16T00:52:17.833Z,101612.22
2023-03-16T00:55:05.192Z,101619.34
2023-03-16T00:57:52.040Z,101619.16
2023-03-16T01:00:40.363Z,101611.28
2023-03-16T01:03:27.057Z,101615.66
2023-03-16T01:06:17.217Z,101613.84
2023-03-16T01:09:06.834Z,101621.59
2023-03-16T01:11:54.627Z,101621.81
2023-03-16T01:14:42.467Z,101584.78
2023-03-16T01:17:29.403Z,101624.16
2023-03-16T01:20:19.467Z,101621.47
2023-03-16T01:23:05.992Z,101608.47
2023-03-16T01:25:54.989Z,101619.81
2023-03-16T01:28:42.008Z,101616.31
2023-03-16T01:31:29.416Z,101616.34
2023-03-16T01:34:18.691Z,101614.75
2023-03-16T01:37:05.791Z,101620.78
2023-03-16T01:40:12.731Z,101601.34
2023-03-16T01:43:06.214Z,101610.78
2023-03-16T01:46:19.265Z,101621.41
2023-03-16T01:49:10.900Z,101623.06
2023-03-16T01:52:03.634Z,101611.63
2023-03-16T01:54:56.252Z,101617.59
2023-03-16T01:57:46.334Z,101618.56
2023-03-16T02:00:34.966Z,101619.56
2023-03-16T02:03:40.213Z,101620.38
2023-03-16T02:06:36.820Z,101614.34
2023-03-16T02:09:26.361Z,101617.75
2023-03-16T02:12:18.554Z,101613.44
2023-03-16T02:15:11.467Z,101617.00
2023-03-16T02:18:00.832Z,101604.84
2023-03-16T02:20:53.553Z,101612.63
2023-03-16T02:23:44.310Z,101603.00
2023-03-16T02:26:44.944Z,101606.34
2023-03-16T02:29:54.279Z,101608.50
2023-03-16T02:32:42.526Z,101611.16
2023-03-16T02:35:28.999Z,101615.25
2023-03-16T02:38:15.911Z,101623.09
2023-03-16T02:41:14.253Z,101615.84
2023-03-16T02:44:06.607Z,101621.94
2023-03-16T02:47:01.410Z,101628.97
2023-03-16T02:49:49.287Z,101626.31
2023-03-16T02:52:36.332Z,101617.59
2023-03-16T02:55:22.855Z,101625.41
2023-03-16T02:58:09.986Z,101626.41
2023-03-16T03:00:56.987Z,101632.66
2023-03-16T03:03:45.096Z,101632.63
2023-03-16T03:06:32.404Z,101633.03
2023-03-16T03:09:19.702Z,101637.34
2023-03-16T03:12:10.183Z,101639.00
2023-03-16T03:14:57.385Z,101642.38
2023-03-16T03:17:45.264Z,101646.63
2023-03-16T03:20:33.817Z,101656.09
2023-03-16T03:23:20.358Z,101651.69
2023-03-16T03:26:07.702Z,101651.69
2023-03-16T03:28:54.592Z,101640.53
2023-03-16T03:31:41.492Z,101645.56
2023-03-16T03:34:28.360Z,101622.81
2023-03-16T03:37:16.502Z,101648.53
2023-03-16T03:40:11.121Z,101654.69
2023-03-16T03:42:59.232Z,101652.91
2023-03-16T03:45:47.332Z,101646.88
2023-03-16T03:48:34.889Z,101644.25
2023-03-16T03:51:21.830Z,101647.66
2023-03-16T03:54:36.362Z,101642.47
2023-03-16T03:57:28.350Z,101646.72
2023-03-16T04:00:16.128Z,101645.81
2023-03-16T04:03:04.170Z,101644.91
2023-03-16T04:05:57.640Z,101643.19
2023-03-16T04:08:44.317Z,101639.91
2023-03-16T04:11:39.039Z,101641.72
2023-03-16T04:14:25.887Z,101643.44
2023-03-16T04:17:13.623Z,101623.69
2023-03-16T04:20:06.070Z,101634.94
2023-03-16T04:22:58.580Z,101640.75
2023-03-16T04:25:45.733Z,101651.47
2023-03-16T04:28:36.432Z,101649.66
2023-03-16T04:31:23.230Z,101651.97
2023-03-16T04:34:10.199Z,101657.78
2023-03-16T04:36:56.748Z,101655.75
2023-03-16T04:39:43.418Z,101658.22
2023-03-16T04:42:30.634Z,101663.50
2023-03-16T04:45:19.100Z,101678.94
2023-03-16T04:48:07.863Z,101676.22
2023-03-16T04:50:54.840Z,101678.81
2023-03-16T04:53:42.221Z,101677.78
2023-03-16T04:56:35.611Z,101682.50
2023-03-16T04:59:27.668Z,101683.59
2023-03-16T05:02:25.584Z,101683.16
2023-03-16T05:05:12.278Z,101698.03
2023-03-16T05:08:03.357Z,101697.03
2023-03-16T05:10:52.596Z,101689.75
2023-03-16T05:13:39.389Z,101692.31
2023-03-16T05:16:26.281Z,101694.13
2023-03-16T05:19:14.416Z,101703.75
2023-03-16T05:22:01.194Z,101699.28
2023-03-16T05:24:47.801Z,101704.66
2023-03-16T05:27:35.482Z,101701.88
2023-03-16T05:30:24.695Z,101704.59
2023-03-16T05:33:13.737Z,101709.84
2023-03-16T05:36:03.168Z,101717.59
2023-03-16T05:38:50.874Z,101718.28
2023-03-16T05:41:46.060Z,101725.28
2023-03-16T05:44:38.225Z,101719.91
2023-03-16T05:47:38.938Z,101720.00
2023-03-16T05:50:28.737Z,101723.41
2023-03-16T05:53:17.086Z,101729.59
2023-03-16T05:56:03.967Z,101723.75
2023-03-16T05:58:54.122Z,101685.22
2023-03-16T06:01:43.283Z,101725.84
2023-03-16T06:04:30.095Z,101725.09
2023-03-16T06:07:17.763Z,101726.31
2023-03-16T06:10:08.249Z,101729.16
2023-03-16T06:12:55.082Z,101732.19
2023-03-16T06:15:42.203Z,101726.66
2023-03-16T06:18:29.001Z,101738.56
2023-03-16T06:21:16.335Z,101732.03
2023-03-16T06:24:04.709Z,101735.75
2023-03-16T06:26:53.298Z,101740.94
2023-03-16T06:29:44.091Z,101640.47
2023-03-16T06:32:30.899Z,101744.56
2023-03-16T06:35:17.704Z,101748.97
2023-03-16T06:38:13.225Z,101753.53
2023-03-16T06:41:10.220Z,101749.69
2023-03-16T06:43:58.494Z,101749.22
2023-03-16T06:46:44.970Z,101756.44
2023-03-16T06:49:31.802Z,101754.75
2023-03-16T06:52:20.002Z,101756.75
2023-03-16T06:55:07.824Z,101759.34
2023-03-16T06:57:58.236Z,101762.97
2023-03-16T07:00:46.532Z,101768.22
2023-03-16T07:03:33.184Z,101770.78
2023-03-16T07:06:26.655Z,101769.06
2023-03-16T07:09:14.180Z,101771.84
2023-03-16T07:12:01.449Z,101781.66
2023-03-16T07:14:51.859Z,101779.00
2023-03-16T07:17:43.798Z,101782.34
2023-03-16T07:20:33.203Z,101784.38
2023-03-16T07:23:24.500Z,101787.84
2023-03-16T07:26:12.870Z,101783.44
2023-03-16T07:29:10.081Z,101793.41
2023-03-16T07:31:57.304Z,101800.44
2023-03-16T07:34:52.373Z,101806.78
2023-03-16T07:37:39.344Z,101806.03
2023-03-16T07:40:27.665Z,101811.97
2023-03-16T07:43:20.290Z,101818.97
2023-03-16T07:46:10.735Z,101817.47
2023-03-16T07:48:57.792Z,101799.84
2023-03-16T07:51:46.324Z,101814.16
2023-03-16T07:54:34.981Z,101818.66
2023-03-16T07:57:23.974Z,101807.44
2023-03-16T08:00:14.194Z,101808.50
2023-03-16T08:03:03.123Z,101812.22
2023-03-16T08:05:50.443Z,101807.97
2023-03-16T08:08:40.280Z,101809.81
2023-03-16T08:11:29.318Z,101810.56
2023-03-16T08:14:19.122Z,101801.31
2023-03-16T08:17:18.760Z,101797.06
2023-03-16T08:20:10.711Z,101803.47
2023-03-16T08:22:57.560Z,101805.41
2023-03-16T08:25:49.181Z,101806.94
2023-03-16T08:28:37.402Z,101802.72
2023-03-16T08:31:28.941Z,101800.13
2023-03-16T08:34:24.611Z,101808.31
2023-03-16T08:37:11.743Z,101812.13
2023-03-16T08:40:00.474Z,101817.59
2023-03-16T08:42:50.926Z,101819.81
2023-03-16T08:45:39.422Z,101830.84
2023-03-16T08:48:26.654Z,101825.53
2023-03-16T08:51:13.233Z,101837.47
2023-03-16T08:54:00.765Z,101840.88
2023-03-16T08:56:47.236Z,101840.25
2023-03-16T08:59:35.330Z,101841.34
2023-03-16T09:02:22.284Z,101851.41
2023-03-16T09:05:11.197Z,101847.03
2023-03-16T09:07:58.910Z,101848.69
2023-03-16T09:10:46.899Z,101844.66
2023-03-16T09:13:33.795Z,101845.56
2023-03-16T09:16:25.727Z,101848.94
2023-03-16T09:19:12.204Z,101843.69
2023-03-16T09:21:59.282Z,101846.31
2023-03-16T09:24:46.040Z,101846.97
2023-03-16T09:27:33.177Z,101850.34
2023-03-16T09:30:19.952Z,101854.78
2023-03-16T09:33:07.947Z,101845.41
2023-03-16T09:35:55.969Z,101850.72
2023-03-16T09:38:43.919Z,101859.38
2023-03-16T09:41:43.710Z,101854.97
2023-03-16T09:44:40.463Z,101861.88
2023-03-16T09:47:30.390Z,101864.53
2023-03-16T09:50:28.197Z,101860.88
2023-03-16T09:53:24.924Z,101868.56
2023-03-16T09:56:15.626Z,101875.63
2023-03-16T09:59:04.360Z,101877.56
2023-03-16T10:02:05.073Z,101874.81
2023-03-16T10:05:00.942Z,101875.88
2023-03-16T10:08:02.090Z,101878.75
2023-03-16T10:11:06.335Z,101869.66
2023-03-16T10:13:57.835Z,101866.72
2023-03-16T10:16:49.192Z,101870.13
2023-03-16T10:19:42.178Z,101861.94
2023-03-16T10:22:32.271Z,101853.00
2023-03-16T10:25:24.400Z,101856.63
2023-03-16T10:28:14.532Z,101854.78
2023-03-16T10:31:04.310Z,101862.50
2023-03-16T10:33:55.755Z,101853.56
2023-03-16T10:36:45.257Z,101851.69
2023-03-16T10:39:42.987Z,101847.28
2023-03-16T10:42:30.811Z,101844.56
2023-03-16T10:45:27.679Z,101847.81
2023-03-16T10:48:16.114Z,101844.88
2023-03-16T10:51:07.903Z,101844.91
2023-03-16T10:53:54.945Z,101837.44
2023-03-16T10:56:41.736Z,101835.63
2023-03-16T10:59:34.416Z,101837.53
2023-03-16T11:02:23.818Z,101829.59
2023-03-16T11:05:16.049Z,101828.41
2023-03-16T11:08:10.695Z,101831.38
2023-03-16T11:10:59.224Z,101828.53
2023-03-16T11:13:47.684Z,101828.63
2023-03-16T11:16:40.290Z,101828.13
2023-03-16T11:19:29.623Z,101830.38
2023-03-16T11:22:19.047Z,101836.72
2023-03-16T11:25:14.398Z,101823.41
2023-03-16T11:28:13.620Z,101824.75
2023-03-16T11:31:14.045Z,101814.44
2023-03-16T11:34:02.926Z,101814.28
2023-03-16T11:36:55.073Z,101817.81
2023-03-16T11:39:54.319Z,101813.66
2023-03-16T11:42:50.429Z,101812.81
2023-03-16T11:45:45.737Z,101801.56
2023-03-16T11:48:41.149Z,101806.22
2023-03-16T11:51:48.868Z,101802.59
2023-03-16T11:54:56.655Z,101798.19
2023-03-16T11:57:54.848Z,101805.88
2023-03-16T12:00:53.788Z,101791.94
2023-03-16T12:03:58.533Z,101794.75
2023-03-16T12:07:09.350Z,101793.25
2023-03-16T12:10:10.902Z,101791.25
2023-03-16T12:13:15.851Z,101783.16
2023-03-16T12:16:06.822Z,101784.53
2023-03-16T12:19:00.239Z,101776.94
2023-03-16T12:21:50.543Z,101776.31
2023-03-16T12:24:44.029Z,101775.66
2023-03-16T12:27:34.481Z,101774.56
2023-03-16T12:30:42.541Z,101771.97
2023-03-16T12:33:40.946Z,101770.91
2023-03-16T12:37:02.152Z,101772.56
2023-03-16T12:40:21.153Z,101771.34
2023-03-16T12:43:31.935Z,101765.78
2023-03-16T12:46:29.060Z,101757.94
2023-03-16T12:49:16.584Z,101758.84
2023-03-16T12:52:05.426Z,101748.28
2023-03-16T12:54:53.939Z,101754.91
2023-03-16T12:57:43.984Z,101754.50
2023-03-16T13:00:35.947Z,101713.00
2023-03-16T13:03:24.526Z,101753.22
2023-03-16T13:06:20.355Z,101746.63
2023-03-16T13:09:07.816Z,101747.53
2023-03-16T13:11:55.340Z,101734.22
2023-03-16T13:14:45.322Z,101744.69
2023-03-16T13:17:33.919Z,101737.50
2023-03-16T13:20:31.794Z,101729.72
2023-03-16T13:23:25.840Z,101724.44
2023-03-16T13:26:16.608Z,101728.63
2023-03-16T13:29:18.584Z,101722.03
2023-03-16T13:32:19.565Z,101720.31
2023-03-16T13:35:10.077Z,101729.19
2023-03-16T13:38:05.759Z,101723.22
2023-03-16T13:40:55.458Z,101733.91
2023-03-16T13:43:44.514Z,101738.28
2023-03-16T13:46:31.824Z,101737.16
2023-03-16T13:49:20.001Z,101728.69
2023-03-16T13:52:07.076Z,101742.53
2023-03-16T13:54:55.060Z,101739.13
2023-03-16T13:57:44.350Z,101738.44
2023-03-16T14:00:34.702Z,101727.69
2023-03-16T14:03:22.536Z,101712.84
2023-03-16T14:06:23.013Z,101714.81
2023-03-16T14:09:23.750Z,101701.41
2023-03-16T14:12:15.870Z,101703.13
2023-03-16T14:15:07.295Z,101668.16
2023-03-16T14:17:54.624Z,101697.53
2023-03-16T14:20:41.939Z,101694.16
2023-03-16T14:23:35.838Z,101690.59
2023-03-16T14:26:23.038Z,101695.09
2023-03-16T14:29:19.544Z,101691.53
2023-03-16T14:32:23.452Z,101690.13
2023-03-16T14:35:16.549Z,101649.06
2023-03-16T14:38:21.825Z,101684.81
2023-03-16T14:41:23.005Z,101681.13
2023-03-16T14:44:21.261Z,101670.84
2023-03-16T14:47:08.517Z,101673.13
2023-03-16T14:49:57.603Z,101645.38
2023-03-16T14:52:45.876Z,101663.09
2023-03-16T14:55:32.361Z,101658.69
2023-03-16T14:58:20.522Z,101655.16
2023-03-16T15:01:08.199Z,101659.22
2023-03-16T15:03:54.706Z,101650.44
2023-03-16T15:06:41.715Z,101649.31
2023-03-16T15:09:38.332Z,101643.91
2023-03-16T15:12:26.258Z,101644.94
2023-03-16T15:15:16.765Z,101650.31
2023-03-16T15:18:04.122Z,101638.97
2023-03-16T15:20:53.779Z,101640.69
2023-03-16T15:23:41.602Z,101632.16
2023-03-16T15:26:30.736Z,101630.69
2023-03-16T15:29:19.846Z,101635.91
2023-03-16T15:32:14.567Z,101635.97
2023-03-16T15:35:01.173Z,101636.06
2023-03-16T15:37:48.657Z,101629.97
2023-03-16T15:40:37.008Z,101624.47
2023-03-16T15:43:27.297Z,101628.19
2023-03-16T15:46:14.853Z,101619.41
2023-03-16T15:49:02.951Z,101615.31
2023-03-16T15:51:49.576Z,101619.69
2023-03-16T15:54:37.814Z,101614.44
2023-03-16T15:57:24.655Z,101617.81
2023-03-16T16:00:29.940Z,101611.97
2023-03-16T16:03:17.198Z,101600.56
2023-03-16T16:06:10.212Z,101606.94
2023-03-16T16:08:56.886Z,101598.06
2023-03-16T16:11:43.925Z,101599.84
2023-03-16T16:14:30.620Z,101604.41
2023-03-16T16:17:35.913Z,101603.69
2023-03-16T16:20:29.544Z,101603.69
2023-03-16T16:23:18.171Z,101602.81
2023-03-16T16:26:12.499Z,101603.25
2023-03-16T16:28:59.693Z,101609.47
2023-03-16T16:31:46.671Z,101598.59
2023-03-16T16:34:33.387Z,101603.06
2023-03-16T16:37:20.148Z,101607.50
2023-03-16T16:40:09.337Z,101601.53
2023-03-16T16:42:56.347Z,101599.09
2023-03-16T16:45:43.195Z,101601.16
2023-03-16T16:48:33.010Z,101601.19
2023-03-16T16:51:23.344Z,101599.56
2023-03-16T16:54:16.298Z,101600.78
2023-03-16T16:57:05.152Z,101590.41
2023-03-16T16:59:52.282Z,101593.09
2023-03-16T17:02:46.267Z,101592.16
2023-03-16T17:05:32.797Z,101593.00
2023-03-16T17:08:19.997Z,101586.94
2023-03-16T17:11:06.664Z,101570.41
2023-03-16T17:13:55.710Z,101585.34
2023-03-16T17:16:42.677Z,101588.88
2023-03-16T17:19:29.553Z,101590.78
2023-03-16T17:22:24.647Z,101594.34
2023-03-16T17:25:11.560Z,101599.56
2023-03-16T17:27:58.960Z,101597.91
2023-03-16T17:30:49.193Z,101601.47
2023-03-16T17:33:35.753Z,101602.38
2023-03-16T17:36:22.943Z,101593.66
2023-03-16T17:39:24.772Z,101604.22
2023-03-16T17:42:18.565Z,101599.00
2023-03-16T17:45:15.757Z,101605.13
2023-03-16T17:48:05.308Z,101599.03
2023-03-16T17:50:52.118Z,101599.94
2023-03-16T17:53:39.885Z,101612.28
2023-03-16T17:56:28.097Z,101608.81
2023-03-16T17:59:17.594Z,101614.06
2023-03-16T18:02:04.859Z,101607.06
2023-03-16T18:04:53.245Z,101606.22
2023-03-16T18:07:41.783Z,101600.94
2023-03-16T18:10:31.521Z,101600.06
2023-03-16T18:13:22.605Z,101586.03
2023-03-16T18:16:10.285Z,101593.91
2023-03-16T18:19:00.427Z,101595.66
2023-03-16T18:21:51.299Z,101590.44
2023-03-16T18:24:44.461Z,101599.22
2023-03-16T18:27:35.694Z,101594.84
2023-03-16T18:30:27.608Z,101598.34
2023-03-16T18:33:28.682Z,101597.50
2023-03-16T18:36:18.495Z,101584.34
2023-03-16T18:39:08.182Z,101579.06
2023-03-16T18:41:54.849Z,101582.53
2023-03-16T18:44:41.429Z,101568.50
2023-03-16T18:47:31.643Z,101572.00
2023-03-16T18:50:22.860Z,101583.41
2023-03-16T18:53:16.195Z,101582.50
2023-03-16T18:56:04.450Z,101564.03
2023-03-16T18:58:52.698Z,101574.56
2023-03-16T19:01:42.223Z,101572.72
2023-03-16T19:04:32.928Z,101564.75
2023-03-16T19:07:26.691Z,101570.00
2023-03-16T19:10:22.171Z,101571.78
2023-03-16T19:13:19.226Z,101571.78
2023-03-16T19:16:15.814Z,101573.53
2023-03-16T19:19:02.568Z,101560.34
2023-03-16T19:21:50.681Z,101561.22
2023-03-16T19:24:45.028Z,101566.44
2023-03-16T19:27:38.132Z,101558.59
2023-03-16T19:30:29.285Z,101562.97
2023-03-16T19:33:20.965Z,101543.72
2023-03-16T19:36:15.678Z,101557.75
2023-03-16T19:39:04.028Z,101557.72
2023-03-16T19:42:26.054Z,101573.53
2023-03-16T19:45:19.047Z,101566.63
2023-03-16T19:48:14.193Z,101565.78
2023-03-16T19:51:02.025Z,101556.13
2023-03-16T19:53:49.817Z,101555.22
2023-03-16T19:56:36.713Z,101546.47
2023-03-16T19:59:27.026Z,101545.63
2023-03-16T20:02:26.613Z,101542.94
2023-03-16T20:05:19.751Z,101554.38
2023-03-16T20:08:20.132Z,101549.03
2023-03-16T20:11:11.074Z,101541.94
2023-03-16T20:13:59.019Z,101537.50
2023-03-16T20:16:47.336Z,101540.09
2023-03-16T20:19:46.504Z,101540.97
2023-03-16T20:22:41.508Z,101530.41
2023-03-16T20:25:47.151Z,101546.97
2023-03-16T20:28:42.452Z,101532.00
2023-03-16T20:31:34.695Z,101529.31
2023-03-16T20:34:26.664Z,101533.72
2023-03-16T20:37:23.877Z,101538.16
2023-03-16T20:40:12.935Z,101539.84
2023-03-16T20:42:59.421Z,101541.56
2023-03-16T20:45:46.235Z,101541.53
2023-03-16T20:48:32.968Z,101541.59
2023-03-16T20:51:19.606Z,101532.75
2023-03-16T20:54:07.407Z,101541.59
2023-03-16T20:56:55.879Z,101528.38
2023-03-16T20:59:43.528Z,101531.81
2023-03-16T21:02:34.116Z,101536.28
2023-03-16T21:05:20.793Z,101527.56
2023-03-16T21:08:08.292Z,101526.63
2023-03-16T21:10:56.814Z,101526.59
2023-03-16T21:13:44.594Z,101530.16
2023-03-16T21:16:31.409Z,101536.25
2023-03-16T21:19:21.138Z,101530.09
2023-03-16T21:22:26.098Z,101519.56
2023-03-16T21:25:20.728Z,101515.94
2023-03-16T21:28:07.321Z,101501.81
2023-03-16T21:30:57.583Z,101500.09
2023-03-16T21:33:44.547Z,101496.56
2023-03-16T21:36:31.231Z,101490.53
2023-03-16T21:39:22.590Z,101482.69
2023-03-16T21:42:09.427Z,101486.19
2023-03-16T21:44:56.304Z,101487.03
2023-03-16T21:47:45.376Z,101431.06
2023-03-16T21:50:35.711Z,101472.19
2023-03-16T21:53:27.453Z,101462.56
2023-03-16T21:56:17.064Z,101437.22
2023-03-16T21:59:04.100Z,101449.50
2023-03-16T22:02:01.136Z,101451.31
2023-03-16T22:04:51.142Z,101444.31
2023-03-16T22:07:37.708Z,101440.81
2023-03-16T22:10:26.081Z,101446.16
2023-03-16T22:13:13.287Z,101405.16
2023-03-16T22:15:59.916Z,101439.25
2023-03-16T22:18:48.351Z,101439.34
2023-03-16T22:21:38.207Z,101436.72
2023-03-16T22:24:29.068Z,101436.66
2023-03-16T22:27:18.939Z,101422.53
2023-03-16T22:30:07.203Z,101411.13
2023-03-16T22:32:58.083Z,101405.72
2023-03-16T22:35:45.041Z,101368.94
2023-03-16T22:38:35.138Z,101402.19
2023-03-16T22:41:23.281Z,101422.28
2023-03-16T22:44:19.076Z,101424.06
2023-03-16T22:47:13.732Z,101409.16
2023-03-16T22:50:01.289Z,101412.75
2023-03-16T22:52:51.190Z,101415.44
2023-03-16T22:55:41.371Z,101414.59
2023-03-16T22:58:33.817Z,101400.56
2023-03-16T23:01:23.222Z,101390.06
2023-03-16T23:04:15.585Z,101382.19
2023-03-16T23:07:02.431Z,101378.66
2023-03-16T23:09:49.375Z,101393.53
2023-03-16T23:12:38.701Z,101398.88
2023-03-16T23:15:27.873Z,101384.84
2023-03-16T23:18:19.769Z,101395.47
2023-03-16T23:21:06.970Z,101389.34
2023-03-16T23:24:03.620Z,101388.47
2023-03-16T23:26:52.101Z,101393.81
2023-03-16T23:29:41.193Z,101392.94
2023-03-16T23:32:27.865Z,101391.13
2023-03-16T23:35:18.228Z,101393.75
2023-03-16T23:38:05.045Z,101394.66
2023-03-16T23:40:51.857Z,101398.16
2023-03-16T23:43:41.695Z,101386.84
2023-03-16T23:46:30.783Z,101390.31
2023-03-16T23:49:21.614Z,101369.28
2023-03-16T23:52:08.368Z,101364.94
2023-03-16T23:55:13.224Z,101368.50
2023-03-16T23:58:02.906Z,101364.09
